createdAt,value
2019-04-29T00:00:57.101Z,100.92
2019-04-29T00:01:56.931Z,101.03
2019-04-29T00:02:57.592Z,100.85
2019-04-29T00:03:58.393Z,101.03
2019-04-29T00:05:00.424Z,101.70
2019-04-29T00:06:01.315Z,101.96
2019-04-29T00:07:02.425Z,102.10
2019-04-29T00:08:01.890Z,101.89
2019-04-29T00:09:03.423Z,102.24
2019-04-29T00:10:03.918Z,102.15
2019-04-29T00:11:03.948Z,101.97
2019-04-29T00:12:04.506Z,102.10
2019-04-29T00:13:05.519Z,102.42
2019-04-29T00:14:06.330Z,102.48
2019-04-29T00:15:07.306Z,102.25
2019-04-29T00:16:06.356Z,102.23
2019-04-29T00:17:07.134Z,102.83
2019-04-29T00:18:08.130Z,102.33
2019-04-29T00:19:08.329Z,102.27
2019-04-29T00:20:08.467Z,102.93
2019-04-29T00:21:09.274Z,102.63
2019-04-29T00:22:10.031Z,103.12
2019-04-29T00:23:11.802Z,103.36
2019-04-29T00:24:12.028Z,103.26
2019-04-29T00:25:12.503Z,103.66
2019-04-29T00:26:13.068Z,103.82
2019-04-29T00:27:13.720Z,103.40
2019-04-29T00:28:13.552Z,103.59
2019-04-29T00:29:14.880Z,103.57
2019-04-29T00:30:14.745Z,103.50
2019-04-29T00:31:14.959Z,103.66
2019-04-29T00:32:15.840Z,103.56
2019-04-29T00:33:17.211Z,103.39
2019-04-29T00:33:26.323Z,102.78
2019-04-29T00:34:27.675Z,102.74
2019-04-29T00:35:28.658Z,102.76
2019-04-29T00:36:29.279Z,102.74
2019-04-29T00:37:30.064Z,102.26
2019-04-29T00:38:30.197Z,101.96
2019-04-29T00:39:30.573Z,102.33
2019-04-29T00:40:31.155Z,103.05
2019-04-29T00:41:31.857Z,103.71
2019-04-29T00:42:32.558Z,104.06
2019-04-29T00:43:33.078Z,104.06
2019-04-29T00:44:33.607Z,104.67
2019-04-29T00:45:34.294Z,105.06
2019-04-29T00:46:35.070Z,104.85
2019-04-29T00:47:35.571Z,104.93
2019-04-29T00:48:35.690Z,104.73
2019-04-29T00:49:36.234Z,104.79
2019-04-29T00:50:36.037Z,104.67
2019-04-29T00:51:36.682Z,104.62
2019-04-29T00:52:38.205Z,104.46
2019-04-29T00:53:38.722Z,104.50
2019-04-29T00:54:39.237Z,104.70
2019-04-29T00:55:39.742Z,104.69
2019-04-29T00:56:40.321Z,104.96
2019-04-29T00:57:40.857Z,105.00
2019-04-29T00:58:41.494Z,105.18
2019-04-29T00:59:41.955Z,105.21
2019-04-29T01:00:42.636Z,105.32
2019-04-29T01:01:43.340Z,105.35
2019-04-29T01:02:42.928Z,105.34
2019-04-29T01:03:44.034Z,105.36
2019-04-29T01:04:44.116Z,105.44
2019-04-29T01:05:44.511Z,105.43
2019-04-29T01:06:45.302Z,105.17
2019-04-29T01:07:46.292Z,105.18
2019-04-29T01:08:46.467Z,104.94
2019-04-29T01:09:47.418Z,105.00
2019-04-29T01:10:48.381Z,104.93
2019-04-29T01:11:48.851Z,105.01
2019-04-29T01:12:49.612Z,104.88
2019-04-29T01:13:50.222Z,104.45
2019-04-29T01:14:50.753Z,103.88
2019-04-29T01:15:51.384Z,103.84
2019-04-29T01:16:51.863Z,103.68
2019-04-29T01:17:52.358Z,103.05
2019-04-29T01:18:53.035Z,102.96
2019-04-29T01:19:03.917Z,102.67
2019-04-29T01:20:01.613Z,102.67
2019-04-29T01:21:03.189Z,102.87
2019-04-29T01:22:03.867Z,102.51
2019-04-29T01:23:04.506Z,102.26
2019-04-29T01:24:05.326Z,101.86
2019-04-29T01:25:05.952Z,101.65
2019-04-29T01:26:06.532Z,101.55
2019-04-29T01:27:07.327Z,101.17
2019-04-29T01:28:07.839Z,101.31
2019-04-29T01:29:08.405Z,101.11
2019-04-29T01:30:08.902Z,101.07
2019-04-29T01:31:09.416Z,101.60
2019-04-29T01:32:09.061Z,101.63
2019-04-29T01:33:10.572Z,101.64
2019-04-29T01:34:11.095Z,101.39
2019-04-29T01:35:11.718Z,101.30
2019-04-29T01:36:12.292Z,101.37
2019-04-29T01:37:12.821Z,101.80
2019-04-29T01:38:13.454Z,101.68
2019-04-29T01:39:13.002Z,101.38
2019-04-29T01:40:14.663Z,101.21
2019-04-29T01:41:15.143Z,101.18
2019-04-29T01:42:15.639Z,101.44
2019-04-29T01:43:16.173Z,101.07
2019-04-29T01:44:16.692Z,100.31
2019-04-29T01:45:17.252Z,99.70
2019-04-29T01:46:17.444Z,99.73
2019-04-29T01:47:17.980Z,99.27
2019-04-29T01:48:18.563Z,99.55
2019-04-29T01:49:18.229Z,99.64
2019-04-29T01:50:19.749Z,99.72
2019-04-29T01:51:20.683Z,99.83
2019-04-29T01:52:21.423Z,99.91
2019-04-29T01:53:21.903Z,100.61
2019-04-29T01:54:22.633Z,100.86
2019-04-29T01:55:23.261Z,100.94
2019-04-29T01:56:22.871Z,100.85
2019-04-29T01:57:24.507Z,100.73
2019-04-29T01:58:25.263Z,100.77
2019-04-29T01:59:25.772Z,101.60
2019-04-29T02:00:26.744Z,101.57
2019-04-29T02:01:27.339Z,101.32
2019-04-29T02:02:27.953Z,101.07
2019-04-29T02:03:28.668Z,101.58
2019-04-29T02:04:28.217Z,101.58
2019-04-29T02:05:29.748Z,101.72
2019-04-29T02:06:30.297Z,101.53
2019-04-29T02:07:30.788Z,101.42
2019-04-29T02:07:39.329Z,101.48
2019-04-29T02:08:40.875Z,101.51
2019-04-29T02:09:41.377Z,101.63
2019-04-29T02:10:42.200Z,101.20
2019-04-29T02:11:42.761Z,101.29
2019-04-29T02:12:42.822Z,101.46
2019-04-29T02:13:43.289Z,101.85
2019-04-29T02:14:44.048Z,101.82
2019-04-29T02:15:44.160Z,101.18
2019-04-29T02:16:44.678Z,101.59
2019-04-29T02:17:45.277Z,101.58
2019-04-29T02:18:44.810Z,101.94
2019-04-29T02:19:47.382Z,101.95
2019-04-29T02:20:46.831Z,102.30
2019-04-29T02:21:47.368Z,101.88
2019-04-29T02:22:47.898Z,102.13
2019-04-29T02:23:48.517Z,102.57
2019-04-29T02:24:49.154Z,102.54
2019-04-29T02:25:49.821Z,103.02
2019-04-29T02:26:50.388Z,102.52
2019-04-29T02:27:50.977Z,102.37
2019-04-29T02:28:51.607Z,102.66
2019-04-29T02:29:52.506Z,102.41
2019-04-29T02:30:53.108Z,102.41
2019-04-29T02:31:52.824Z,102.57
2019-04-29T02:32:54.509Z,102.55
2019-04-29T02:33:55.490Z,102.80
2019-04-29T02:34:56.474Z,102.38
2019-04-29T02:35:56.901Z,103.09
2019-04-29T02:36:57.424Z,103.03
2019-04-29T02:37:57.967Z,103.00
2019-04-29T02:38:57.600Z,103.27
2019-04-29T02:39:59.348Z,103.63
2019-04-29T02:41:00.141Z,103.74
2019-04-29T02:42:00.626Z,103.93
2019-04-29T02:43:01.189Z,103.90
2019-04-29T02:44:02.103Z,104.15
2019-04-29T02:45:03.223Z,104.21
2019-04-29T02:46:02.563Z,104.26
2019-04-29T02:47:03.496Z,104.86
2019-04-29T02:48:04.123Z,105.43
2019-04-29T02:49:06.096Z,105.43
2019-04-29T02:50:06.845Z,105.70
2019-04-29T02:51:07.486Z,106.07
2019-04-29T02:52:08.018Z,105.82
2019-04-29T02:53:08.053Z,105.75
2019-04-29T02:54:08.565Z,105.33
2019-04-29T02:55:09.241Z,104.72
2019-04-29T02:56:09.813Z,104.60
2019-04-29T02:57:10.445Z,105.04
2019-04-29T02:57:18.971Z,106.11
2019-04-29T02:58:19.455Z,106.20
2019-04-29T02:59:21.247Z,106.90
2019-04-29T03:00:21.868Z,107.03
2019-04-29T03:01:22.433Z,107.19
2019-04-29T03:02:22.906Z,107.39
2019-04-29T03:03:23.710Z,107.12
2019-04-29T03:04:24.269Z,106.76
2019-04-29T03:05:24.824Z,106.92
2019-04-29T03:06:25.481Z,106.57
2019-04-29T03:07:25.984Z,106.47
2019-04-29T03:08:26.513Z,106.41
2019-04-29T03:09:26.993Z,107.01
2019-04-29T03:10:27.613Z,107.18
2019-04-29T03:11:28.066Z,107.49
2019-04-29T03:12:28.589Z,107.59
2019-04-29T03:13:29.346Z,107.59
2019-04-29T03:14:29.907Z,107.13
2019-04-29T03:15:31.352Z,107.11
2019-04-29T03:16:31.893Z,106.99
2019-04-29T03:17:31.311Z,107.28
2019-04-29T03:18:32.041Z,107.40
2019-04-29T03:19:33.638Z,107.56
2019-04-29T03:20:32.149Z,107.41
2019-04-29T03:21:33.667Z,107.02
2019-04-29T03:22:33.223Z,106.73
2019-04-29T03:23:34.769Z,106.22
2019-04-29T03:24:35.268Z,105.79
2019-04-29T03:25:35.825Z,106.06
2019-04-29T03:26:36.297Z,106.03
2019-04-29T03:27:36.780Z,105.76
2019-04-29T03:28:37.294Z,105.80
2019-04-29T03:29:37.851Z,105.59
2019-04-29T03:30:38.672Z,106.00
2019-04-29T03:31:40.048Z,105.95
2019-04-29T03:32:39.083Z,105.91
2019-04-29T03:33:39.514Z,105.81
2019-04-29T03:34:41.000Z,105.53
2019-04-29T03:35:41.779Z,105.63
2019-04-29T03:36:42.299Z,105.75
2019-04-29T03:37:42.756Z,105.46
2019-04-29T03:38:42.915Z,105.26
2019-04-29T03:39:43.404Z,105.30
2019-04-29T03:40:43.802Z,105.15
2019-04-29T03:41:45.558Z,104.25
2019-04-29T03:42:45.068Z,104.24
2019-04-29T03:43:45.102Z,104.53
2019-04-29T03:44:45.570Z,104.88
2019-04-29T03:44:54.179Z,104.94
2019-04-29T03:45:55.121Z,104.95
2019-04-29T03:46:56.773Z,104.77
2019-04-29T03:47:57.214Z,104.57
2019-04-29T03:48:57.835Z,104.60
2019-04-29T03:49:58.450Z,104.38
2019-04-29T03:50:58.944Z,103.99
2019-04-29T03:51:59.505Z,103.82
2019-04-29T03:52:59.979Z,103.61
2019-04-29T03:54:00.457Z,103.73
2019-04-29T03:55:00.902Z,103.37
2019-04-29T03:56:00.437Z,103.14
2019-04-29T03:57:01.163Z,103.29
2019-04-29T03:58:02.846Z,103.50
2019-04-29T03:59:03.551Z,103.90
2019-04-29T04:00:04.067Z,103.85
2019-04-29T04:01:05.045Z,103.82
2019-04-29T04:02:05.641Z,103.98
2019-04-29T04:03:06.171Z,103.48
2019-04-29T04:04:05.618Z,103.05
2019-04-29T04:05:07.233Z,103.19
2019-04-29T04:06:08.086Z,103.54
2019-04-29T04:08:08.006Z,103.57
2019-04-29T04:09:09.476Z,103.70
2019-04-29T04:10:09.607Z,103.36
2019-04-29T04:11:10.171Z,103.30
2019-04-29T04:12:10.714Z,103.27
2019-04-29T04:13:11.366Z,102.71
2019-04-29T04:14:11.465Z,102.60
2019-04-29T04:15:12.172Z,102.44
2019-04-29T04:16:12.724Z,102.57
2019-04-29T04:17:13.314Z,102.30
2019-04-29T04:18:12.820Z,102.27
2019-04-29T04:19:13.334Z,102.33
2019-04-29T04:20:14.864Z,102.38
2019-04-29T04:21:15.802Z,102.01
2019-04-29T04:22:16.213Z,102.71
2019-04-29T04:23:17.035Z,102.77
2019-04-29T04:24:16.643Z,102.99
2019-04-29T04:25:18.119Z,103.02
2019-04-29T04:26:18.665Z,103.19
2019-04-29T04:27:19.225Z,103.12
2019-04-29T04:28:19.678Z,103.60
2019-04-29T04:29:20.272Z,103.92
2019-04-29T04:30:20.894Z,103.48
2019-04-29T04:31:20.441Z,103.37
2019-04-29T04:32:21.910Z,103.06
2019-04-29T04:33:22.434Z,103.34
2019-04-29T04:34:22.914Z,103.33
2019-04-29T04:35:23.450Z,103.66
2019-04-29T04:36:23.927Z,103.62
2019-04-29T04:37:24.464Z,103.33
2019-04-29T04:37:32.995Z,103.66
2019-04-29T04:38:34.554Z,103.66
2019-04-29T04:39:35.210Z,103.53
2019-04-29T04:40:35.768Z,103.10
2019-04-29T04:41:35.320Z,103.35
2019-04-29T04:42:36.995Z,103.25
2019-04-29T04:43:37.567Z,102.69
2019-04-29T04:44:38.151Z,102.84
2019-04-29T04:45:38.651Z,102.47
2019-04-29T04:46:38.676Z,102.18
2019-04-29T04:47:38.748Z,102.00
2019-04-29T04:48:39.457Z,101.65
2019-04-29T04:49:39.415Z,101.70
2019-04-29T04:50:40.582Z,101.81
2019-04-29T04:51:40.805Z,101.60
2019-04-29T04:52:41.656Z,101.29
2019-04-29T04:53:42.246Z,101.23
2019-04-29T04:54:46.136Z,101.23
2019-04-29T04:55:43.867Z,101.43
2019-04-29T04:56:44.465Z,101.24
2019-04-29T04:57:45.069Z,101.38
2019-04-29T04:58:45.616Z,101.27
2019-04-29T04:59:46.113Z,101.08
2019-04-29T05:00:46.581Z,100.55
2019-04-29T05:01:47.083Z,101.07
2019-04-29T05:02:47.562Z,100.56
2019-04-29T05:03:48.262Z,99.88
2019-04-29T05:04:48.750Z,99.54
2019-04-29T05:05:49.244Z,99.58
2019-04-29T05:06:49.966Z,100.11
2019-04-29T05:07:50.630Z,100.05
2019-04-29T05:08:51.148Z,100.28
2019-04-29T05:09:51.675Z,100.81
2019-04-29T05:10:52.329Z,101.50
2019-04-29T05:11:52.886Z,101.84
2019-04-29T05:12:53.365Z,101.84
2019-04-29T05:13:53.900Z,102.03
2019-04-29T05:14:54.526Z,101.82
2019-04-29T05:15:53.993Z,102.03
2019-04-29T05:16:55.461Z,102.79
2019-04-29T05:17:56.158Z,103.20
2019-04-29T05:18:56.701Z,103.13
2019-04-29T05:19:57.271Z,102.41
2019-04-29T05:20:57.883Z,103.41
2019-04-29T05:21:58.378Z,103.75
2019-04-29T05:22:06.985Z,103.13
2019-04-29T05:23:08.491Z,103.13
2019-04-29T05:24:09.024Z,103.40
2019-04-29T05:25:09.604Z,103.57
2019-04-29T05:26:10.497Z,103.47
2019-04-29T05:27:10.995Z,103.69
2019-04-29T05:28:11.664Z,103.71
2019-04-29T05:29:12.276Z,103.71
2019-04-29T05:30:12.753Z,103.27
2019-04-29T05:31:13.292Z,102.94
2019-04-29T05:32:14.178Z,102.57
2019-04-29T05:33:14.762Z,102.53
2019-04-29T05:34:15.331Z,102.31
2019-04-29T05:35:16.054Z,102.04
2019-04-29T05:36:17.013Z,102.31
2019-04-29T05:37:17.525Z,102.55
2019-04-29T05:38:17.962Z,102.41
2019-04-29T05:39:18.388Z,102.45
2019-04-29T05:40:18.962Z,102.30
2019-04-29T05:41:19.045Z,102.11
2019-04-29T05:42:19.439Z,102.55
2019-04-29T05:43:20.288Z,102.18
2019-04-29T05:44:20.815Z,102.11
2019-04-29T05:45:21.450Z,102.50
2019-04-29T05:46:23.262Z,102.56
2019-04-29T05:47:21.894Z,101.04
2019-04-29T05:48:27.328Z,100.40
2019-04-29T05:49:23.297Z,100.26
2019-04-29T05:50:24.863Z,100.08
2019-04-29T05:51:27.326Z,100.71
2019-04-29T05:52:25.438Z,100.60
2019-04-29T05:53:27.092Z,101.00
2019-04-29T05:54:31.809Z,100.50
2019-04-29T05:55:27.216Z,101.06
2019-04-29T05:56:29.181Z,101.02
2019-04-29T05:57:29.647Z,101.25
2019-04-29T05:58:33.016Z,101.38
2019-04-29T05:59:29.261Z,101.21
2019-04-29T06:01:12.064Z,100.28
2019-04-29T06:02:13.753Z,100.27
2019-04-29T06:03:14.341Z,99.89
2019-04-29T06:04:16.355Z,99.85
2019-04-29T06:05:14.437Z,99.25
2019-04-29T06:06:15.960Z,99.65
2019-04-29T06:07:16.906Z,99.85
2019-04-29T06:08:16.080Z,99.66
2019-04-29T06:09:18.424Z,99.88
2019-04-29T06:10:18.249Z,99.36
2019-04-29T06:11:18.377Z,99.23
2019-04-29T06:12:20.095Z,99.55
2019-04-29T06:13:20.667Z,99.41
2019-04-29T06:14:22.310Z,99.52
2019-04-29T06:15:21.286Z,99.28
2019-04-29T06:16:22.695Z,99.72
2019-04-29T06:17:22.265Z,98.88
2019-04-29T06:18:23.887Z,99.08
2019-04-29T06:19:23.372Z,98.80
2019-04-29T06:20:24.930Z,99.22
2019-04-29T06:21:25.585Z,99.11
2019-04-29T06:22:26.003Z,99.41
2019-04-29T06:23:26.444Z,99.91
2019-04-29T06:24:27.194Z,99.94
2019-04-29T06:25:28.159Z,99.95
2019-04-29T06:26:28.602Z,99.18
2019-04-29T06:27:29.255Z,98.91
2019-04-29T06:28:29.787Z,98.70
2019-04-29T06:29:30.644Z,98.76
2019-04-29T06:30:31.114Z,98.35
2019-04-29T06:31:31.706Z,98.80
2019-04-29T06:32:31.431Z,97.99
2019-04-29T06:33:33.058Z,98.58
2019-04-29T06:34:35.620Z,97.51
2019-04-29T06:35:33.192Z,97.87
2019-04-29T06:36:35.023Z,97.69
2019-04-29T06:37:34.439Z,97.47
2019-04-29T06:38:36.300Z,97.58
2019-04-29T06:39:36.983Z,97.71
2019-04-29T06:40:37.478Z,97.33
2019-04-29T06:41:40.743Z,97.23
2019-04-29T06:42:37.281Z,97.46
2019-04-29T06:43:38.510Z,97.73
2019-04-29T06:44:39.011Z,96.62
2019-04-29T06:45:39.606Z,97.25
2019-04-29T06:46:40.082Z,96.48
2019-04-29T06:47:40.584Z,96.40
2019-04-29T06:48:41.167Z,96.61
2019-04-29T06:49:41.739Z,96.23
2019-04-29T06:50:42.388Z,95.80
2019-04-29T06:51:43.108Z,96.39
2019-04-29T06:52:44.006Z,96.45
2019-04-29T06:53:47.695Z,96.39
2019-04-29T06:54:44.017Z,96.13
2019-04-29T06:55:45.558Z,96.26
2019-04-29T06:55:54.165Z,95.92
2019-04-29T06:56:54.635Z,95.92
2019-04-29T06:57:56.075Z,95.54
2019-04-29T06:58:56.550Z,95.32
2019-04-29T06:59:57.375Z,95.17
2019-04-29T07:01:01.125Z,94.53
2019-04-29T07:01:57.790Z,94.83
2019-04-29T07:02:59.387Z,94.71
2019-04-29T07:04:00.154Z,94.84
2019-04-29T07:04:59.124Z,94.76
2019-04-29T07:06:00.732Z,94.25
2019-04-29T07:07:01.327Z,93.83
2019-04-29T07:08:01.865Z,93.71
2019-04-29T07:09:02.394Z,93.14
2019-04-29T07:10:02.938Z,93.52
2019-04-29T07:11:03.514Z,93.72
2019-04-29T07:12:03.212Z,93.32
2019-04-29T07:13:04.803Z,93.11
2019-04-29T07:14:05.322Z,92.98
2019-04-29T07:15:07.624Z,94.19
2019-04-29T07:16:04.884Z,94.47
2019-04-29T07:17:07.258Z,93.93
2019-04-29T07:18:06.193Z,94.14
2019-04-29T07:19:07.801Z,92.92
2019-04-29T07:20:08.366Z,92.74
2019-04-29T07:21:11.853Z,92.71
2019-04-29T07:22:08.598Z,92.63
2019-04-29T07:23:10.405Z,92.41
2019-04-29T07:24:11.363Z,92.51
2019-04-29T07:25:11.922Z,92.21
2019-04-29T07:26:12.714Z,92.15
2019-04-29T07:27:13.464Z,91.51
2019-04-29T07:28:13.813Z,90.76
2019-04-29T07:29:13.492Z,91.35
2019-04-29T07:30:14.520Z,90.88
2019-04-29T07:31:14.989Z,89.63
2019-04-29T07:32:15.569Z,89.50
2019-04-29T07:33:22.111Z,89.53
2019-04-29T07:34:15.917Z,89.65
2019-04-29T07:35:17.504Z,90.96
2019-04-29T07:36:18.624Z,90.13
2019-04-29T07:37:17.619Z,90.40
2019-04-29T07:38:19.264Z,89.98
2019-04-29T07:39:19.960Z,89.45
2019-04-29T07:40:20.473Z,89.09
2019-04-29T07:41:21.101Z,89.12
2019-04-29T07:42:25.086Z,89.15
2019-04-29T07:43:21.519Z,89.00
2019-04-29T07:44:23.079Z,88.89
2019-04-29T07:45:28.007Z,88.09
2019-04-29T07:46:23.363Z,88.57
2019-04-29T07:47:24.949Z,89.08
2019-04-29T07:48:25.064Z,89.42
2019-04-29T07:49:26.871Z,89.54
2019-04-29T07:50:28.486Z,90.09
2019-04-29T07:51:26.891Z,89.18
2019-04-29T07:51:39.452Z,89.58
2019-04-29T07:52:37.068Z,89.86
2019-04-29T07:53:45.029Z,90.45
2019-04-29T07:54:37.696Z,89.58
2019-04-29T07:55:39.618Z,88.95
2019-04-29T07:56:42.321Z,88.79
2019-04-29T07:57:39.829Z,88.47
2019-04-29T07:58:41.635Z,87.33
2019-04-29T07:59:42.439Z,87.69
2019-04-29T08:00:44.567Z,88.04
2019-04-29T08:01:42.981Z,86.58
2019-04-29T08:02:44.805Z,86.71
2019-04-29T08:03:45.436Z,86.66
2019-04-29T08:04:45.988Z,86.41
2019-04-29T08:05:46.648Z,86.68
2019-04-29T08:06:47.166Z,86.31
2019-04-29T08:07:47.650Z,86.31
2019-04-29T08:08:55.550Z,86.02
2019-04-29T08:09:47.942Z,85.70
2019-04-29T08:10:55.884Z,85.96
2019-04-29T08:11:49.180Z,85.33
2019-04-29T08:12:50.802Z,85.50
2019-04-29T08:13:50.514Z,84.91
2019-04-29T08:14:53.419Z,84.26
2019-04-29T08:15:51.766Z,84.77
2019-04-29T08:16:53.364Z,84.22
2019-04-29T08:18:05.972Z,84.31
2019-04-29T08:18:54.933Z,84.78
2019-04-29T08:19:54.300Z,84.61
2019-04-29T08:20:55.967Z,83.98
2019-04-29T08:21:57.781Z,84.37
2019-04-29T08:22:58.435Z,84.50
2019-04-29T08:23:56.147Z,83.60
2019-04-29T08:24:57.828Z,84.09
2019-04-29T08:26:02.595Z,83.45
2019-04-29T08:26:57.796Z,83.40
2019-04-29T08:27:59.347Z,82.30
2019-04-29T08:29:00.716Z,81.90
2019-04-29T08:29:59.483Z,82.14
2019-04-29T08:31:00.122Z,81.37
2019-04-29T08:32:02.569Z,81.71
2019-04-29T08:33:01.506Z,81.57
2019-04-29T08:34:03.391Z,80.01
2019-04-29T08:35:03.482Z,79.42
2019-04-29T08:36:04.071Z,78.56
2019-04-29T08:37:04.922Z,78.19
2019-04-29T08:38:05.537Z,77.32
2019-04-29T08:39:08.693Z,77.32
2019-04-29T08:40:15.956Z,76.14
2019-04-29T08:41:05.643Z,74.62
2019-04-29T08:42:09.143Z,74.35
2019-04-29T08:43:07.152Z,71.79
2019-04-29T08:44:16.312Z,71.80
2019-04-29T08:45:08.678Z,72.20
2019-04-29T08:46:10.657Z,72.12
2019-04-29T08:47:10.696Z,70.41
2019-04-29T08:48:11.493Z,70.42
2019-04-29T08:49:14.708Z,70.14
2019-04-29T08:50:11.464Z,69.78
2019-04-29T08:51:12.791Z,70.37
2019-04-29T08:51:21.339Z,70.52
2019-04-29T08:52:22.434Z,70.30
2019-04-29T08:53:23.412Z,69.31
2019-04-29T08:54:24.352Z,69.19
2019-04-29T08:55:26.529Z,69.15
2019-04-29T08:56:24.852Z,69.32
2019-04-29T08:57:25.883Z,69.24
2019-04-29T08:58:26.788Z,68.67
2019-04-29T08:59:27.493Z,68.57
2019-04-29T09:00:27.817Z,68.71
2019-04-29T09:01:29.287Z,67.06
2019-04-29T09:02:35.123Z,68.17
2019-04-29T09:03:39.604Z,67.31
2019-04-29T09:04:33.357Z,68.10
2019-04-29T09:05:29.182Z,67.77
2019-04-29T09:06:32.655Z,67.87
2019-04-29T09:07:30.805Z,67.89
2019-04-29T09:08:32.836Z,67.13
2019-04-29T09:09:31.907Z,65.85
2019-04-29T09:10:36.854Z,67.36
2019-04-29T09:11:32.484Z,68.29
2019-04-29T09:12:33.608Z,68.00
2019-04-29T09:13:34.280Z,68.16
2019-04-29T09:14:35.130Z,67.94
2019-04-29T09:15:35.780Z,67.87
2019-04-29T09:16:36.328Z,67.97
2019-04-29T09:17:38.074Z,69.13
2019-04-29T09:18:37.769Z,69.11
2019-04-29T09:19:39.520Z,69.28
2019-04-29T09:20:37.603Z,69.49
2019-04-29T09:21:39.189Z,70.11
2019-04-29T09:22:40.038Z,69.84
2019-04-29T09:23:40.900Z,70.11
2019-04-29T09:24:43.577Z,70.96
2019-04-29T09:25:40.628Z,70.44
2019-04-29T09:26:42.415Z,70.83
2019-04-29T09:27:45.014Z,70.41
2019-04-29T09:28:42.924Z,71.25
2019-04-29T09:29:46.378Z,70.06
2019-04-29T09:30:44.677Z,69.58
2019-04-29T09:31:46.719Z,69.57
2019-04-29T09:32:45.641Z,69.83
2019-04-29T09:33:49.054Z,70.51
2019-04-29T09:34:46.670Z,70.12
2019-04-29T09:35:48.519Z,70.15
2019-04-29T09:36:49.817Z,70.17
2019-04-29T09:37:48.237Z,70.47
2019-04-29T09:38:50.216Z,71.23
2019-04-29T09:39:50.904Z,70.53
2019-04-29T09:40:54.600Z,69.69
2019-04-29T09:41:51.179Z,68.99
2019-04-29T09:42:52.831Z,68.93
2019-04-29T09:43:53.778Z,69.04
2019-04-29T09:44:54.395Z,69.27
2019-04-29T09:45:58.880Z,69.68
2019-04-29T09:46:54.555Z,69.62
2019-04-29T09:47:56.180Z,70.33
2019-04-29T09:48:57.091Z,70.07
2019-04-29T09:49:57.867Z,69.22
2019-04-29T09:50:06.407Z,69.07
2019-04-29T09:51:17.279Z,69.07
2019-04-29T09:52:07.788Z,68.70
2019-04-29T09:53:07.694Z,68.32
2019-04-29T09:54:13.963Z,67.88
2019-04-29T09:55:08.966Z,69.92
2019-04-29T09:56:10.719Z,68.29
2019-04-29T09:57:11.357Z,67.71
2019-04-29T09:58:11.994Z,68.62
2019-04-29T09:59:12.028Z,68.21
2019-04-29T10:00:12.517Z,67.62
2019-04-29T10:01:13.940Z,67.42
2019-04-29T10:02:12.177Z,68.33
2019-04-29T10:03:13.870Z,66.43
2019-04-29T10:04:14.443Z,66.37
2019-04-29T10:05:14.605Z,66.65
2019-04-29T10:06:15.178Z,66.86
2019-04-29T10:07:14.953Z,66.88
2019-04-29T10:08:16.442Z,67.17
2019-04-29T10:09:17.209Z,67.76
2019-04-29T10:10:17.947Z,67.71
2019-04-29T10:11:18.588Z,67.71
2019-04-29T10:12:19.258Z,67.67
2019-04-29T10:13:19.447Z,67.80
2019-04-29T10:14:20.185Z,67.97
2019-04-29T10:15:20.827Z,66.90
2019-04-29T10:16:21.405Z,66.73
2019-04-29T10:17:21.921Z,67.02
2019-04-29T10:18:25.074Z,65.33
2019-04-29T10:19:22.500Z,65.73
2019-04-29T10:20:24.000Z,65.47
2019-04-29T10:21:24.948Z,65.32
2019-04-29T10:22:25.802Z,65.55
2019-04-29T10:23:26.389Z,66.26
2019-04-29T10:24:27.053Z,66.49
2019-04-29T10:25:27.617Z,67.47
2019-04-29T10:26:28.158Z,67.28
2019-04-29T10:27:28.878Z,67.17
2019-04-29T10:28:29.460Z,66.32
2019-04-29T10:29:29.940Z,66.68
2019-04-29T10:30:31.097Z,66.52
2019-04-29T10:31:29.854Z,64.31
2019-04-29T10:32:31.397Z,63.43
2019-04-29T10:33:32.051Z,62.45
2019-04-29T10:34:33.088Z,63.21
2019-04-29T10:35:32.217Z,63.94
2019-04-29T10:36:33.796Z,60.58
2019-04-29T10:37:34.377Z,60.95
2019-04-29T10:38:34.975Z,60.59
2019-04-29T10:39:35.611Z,61.72
2019-04-29T10:40:35.804Z,62.79
2019-04-29T10:41:36.169Z,62.95
2019-04-29T10:41:43.984Z,62.92
2019-04-29T10:42:45.493Z,62.97
2019-04-29T10:43:49.493Z,62.75
2019-04-29T10:44:46.026Z,63.22
2019-04-29T10:45:47.683Z,63.37
2019-04-29T10:46:48.303Z,63.91
2019-04-29T10:47:48.521Z,63.26
2019-04-29T10:48:49.415Z,62.52
2019-04-29T10:49:50.036Z,60.46
2019-04-29T10:50:52.000Z,61.45
2019-04-29T10:51:50.366Z,62.07
2019-04-29T10:52:51.874Z,62.04
2019-04-29T10:53:52.681Z,61.76
2019-04-29T10:54:55.453Z,60.92
2019-04-29T10:55:52.670Z,59.07
2019-04-29T10:56:54.527Z,59.79
2019-04-29T10:57:55.247Z,60.21
2019-04-29T10:58:56.030Z,59.93
2019-04-29T10:59:56.513Z,58.77
2019-04-29T11:00:57.249Z,59.08
2019-04-29T11:02:01.347Z,58.28
2019-04-29T11:02:56.783Z,58.37
2019-04-29T11:04:00.684Z,57.89
2019-04-29T11:04:58.261Z,57.22
2019-04-29T11:06:01.741Z,55.08
2019-04-29T11:06:59.404Z,54.19
2019-04-29T11:08:02.483Z,53.96
2019-04-29T11:09:00.670Z,54.43
2019-04-29T11:10:02.521Z,54.46
2019-04-29T11:11:03.243Z,54.70
2019-04-29T11:12:03.824Z,55.47
2019-04-29T11:13:04.406Z,56.79
2019-04-29T11:14:05.262Z,57.42
2019-04-29T11:15:05.732Z,57.83
2019-04-29T11:16:06.236Z,58.28
2019-04-29T11:17:15.828Z,58.87
2019-04-29T11:18:06.650Z,58.02
2019-04-29T11:19:07.495Z,58.29
2019-04-29T11:20:11.160Z,58.35
2019-04-29T11:21:09.071Z,58.81
2019-04-29T11:22:09.205Z,59.61
2019-04-29T11:23:16.430Z,59.32
2019-04-29T11:24:10.395Z,59.76
2019-04-29T11:25:12.088Z,59.87
2019-04-29T11:26:12.979Z,59.30
2019-04-29T11:27:13.586Z,59.22
2019-04-29T11:28:16.177Z,58.77
2019-04-29T11:29:14.271Z,58.44
2019-04-29T11:30:15.777Z,58.22
2019-04-29T11:31:19.061Z,58.73
2019-04-29T11:32:15.789Z,58.78
2019-04-29T11:33:17.393Z,59.43
2019-04-29T11:34:18.179Z,59.17
2019-04-29T11:35:17.559Z,59.50
2019-04-29T11:36:19.036Z,59.10
2019-04-29T11:37:19.646Z,56.22
2019-04-29T11:38:19.524Z,56.11
2019-04-29T11:39:21.019Z,57.14
2019-04-29T11:39:30.559Z,57.52
2019-04-29T11:40:43.030Z,57.62
2019-04-29T11:41:31.623Z,58.84
2019-04-29T11:42:36.426Z,59.24
2019-04-29T11:43:32.924Z,56.36
2019-04-29T11:44:34.779Z,55.53
2019-04-29T11:45:38.473Z,56.70
2019-04-29T11:46:34.986Z,57.14
2019-04-29T11:47:36.454Z,56.96
2019-04-29T11:48:37.196Z,57.39
2019-04-29T11:49:37.920Z,57.44
2019-04-29T11:50:38.359Z,57.57
2019-04-29T11:51:55.745Z,56.79
2019-04-29T11:52:38.568Z,57.46
2019-04-29T11:53:40.138Z,57.91
2019-04-29T11:54:41.009Z,58.18
2019-04-29T11:55:44.609Z,56.73
2019-04-29T11:56:41.432Z,57.21
2019-04-29T11:57:41.805Z,55.21
2019-04-29T11:58:43.290Z,55.67
2019-04-29T11:59:43.837Z,55.63
2019-04-29T12:00:44.545Z,55.33
2019-04-29T12:01:50.851Z,57.38
2019-04-29T12:02:46.138Z,55.33
2019-04-29T12:03:45.295Z,55.86
2019-04-29T12:04:47.169Z,54.67
2019-04-29T12:05:47.865Z,55.05
2019-04-29T12:06:51.137Z,54.85
2019-04-29T12:07:47.930Z,54.64
2019-04-29T12:08:53.079Z,54.97
2019-04-29T12:09:48.475Z,54.73
2019-04-29T12:11:05.942Z,55.27
2019-04-29T12:11:49.727Z,55.04
2019-04-29T12:12:51.282Z,55.21
2019-04-29T12:13:50.906Z,55.82
2019-04-29T12:14:51.357Z,57.17
2019-04-29T12:15:52.522Z,55.22
2019-04-29T12:16:54.889Z,53.78
2019-04-29T12:17:52.983Z,52.90
2019-04-29T12:18:54.526Z,54.50
2019-04-29T12:19:55.266Z,54.00
2019-04-29T12:20:55.952Z,53.10
2019-04-29T12:21:56.463Z,53.62
2019-04-29T12:22:56.917Z,53.22
2019-04-29T12:23:57.403Z,54.01
2019-04-29T12:24:57.878Z,53.58
2019-04-29T12:26:02.509Z,53.92
2019-04-29T12:26:58.191Z,55.45
2019-04-29T12:28:02.038Z,53.94
2019-04-29T12:28:59.337Z,54.50
2019-04-29T12:30:01.008Z,53.75
2019-04-29T12:31:01.551Z,53.76
2019-04-29T12:32:02.276Z,53.62
2019-04-29T12:33:03.160Z,51.45
2019-04-29T12:34:02.241Z,52.15
2019-04-29T12:35:03.720Z,52.85
2019-04-29T12:35:12.259Z,53.06
2019-04-29T12:36:16.433Z,52.79
2019-04-29T12:37:13.380Z,52.67
2019-04-29T12:38:14.931Z,53.71
2019-04-29T12:39:15.420Z,52.42